sensor_id;sensor_type;location;lat;lon;timestamp;temperature;humidity
76305;DHT22;65111;50.536;19.204;2023-06-14T00:01:46;9.70;89.20
76305;DHT22;65111;50.536;19.204;2023-06-14T00:04:13;9.70;89.10
76305;DHT22;65111;50.536;19.204;2023-06-14T00:06:42;9.70;89.10
76305;DHT22;65111;50.536;19.204;2023-06-14T00:09:11;9.70;89.10
76305;DHT22;65111;50.536;19.204;2023-06-14T00:11:41;9.80;89.10
76305;DHT22;65111;50.536;19.204;2023-06-14T00:14:07;9.80;89.10
76305;DHT22;65111;50.536;19.204;2023-06-14T00:16:34;9.90;89.20
76305;DHT22;65111;50.536;19.204;2023-06-14T00:19:03;10.00;89.10
76305;DHT22;65111;50.536;19.204;2023-06-14T00:21:30;10.10;89.00
76305;DHT22;65111;50.536;19.204;2023-06-14T00:23:58;10.10;89.00
76305;DHT22;65111;50.536;19.204;2023-06-14T00:26:25;10.20;89.00
76305;DHT22;65111;50.536;19.204;2023-06-14T00:28:52;10.20;89.00
76305;DHT22;65111;50.536;19.204;2023-06-14T00:31:18;10.30;88.90
76305;DHT22;65111;50.536;19.204;2023-06-14T00:33:44;10.40;88.90
76305;DHT22;65111;50.536;19.204;2023-06-14T00:36:10;10.50;88.80
76305;DHT22;65111;50.536;19.204;2023-06-14T00:38:36;10.50;88.70
76305;DHT22;65111;50.536;19.204;2023-06-14T00:41:02;10.50;88.70
76305;DHT22;65111;50.536;19.204;2023-06-14T00:43:29;10.50;88.80
76305;DHT22;65111;50.536;19.204;2023-06-14T00:45:55;10.50;88.90
76305;DHT22;65111;50.536;19.204;2023-06-14T00:48:21;10.60;88.90
76305;DHT22;65111;50.536;19.204;2023-06-14T00:50:49;10.70;88.80
76305;DHT22;65111;50.536;19.204;2023-06-14T00:53:16;10.80;88.80
76305;DHT22;65111;50.536;19.204;2023-06-14T00:55:47;10.80;88.90
76305;DHT22;65111;50.536;19.204;2023-06-14T00:58:13;10.80;89.00
76305;DHT22;65111;50.536;19.204;2023-06-14T01:00:40;10.90;88.90
76305;DHT22;65111;50.536;19.204;2023-06-14T01:03:06;10.90;89.00
76305;DHT22;65111;50.536;19.204;2023-06-14T01:05:32;11.00;88.80
76305;DHT22;65111;50.536;19.204;2023-06-14T01:08:05;11.10;88.80
76305;DHT22;65111;50.536;19.204;2023-06-14T01:10:45;11.10;88.70
76305;DHT22;65111;50.536;19.204;2023-06-14T01:13:35;11.10;88.80
76305;DHT22;65111;50.536;19.204;2023-06-14T01:16:02;11.30;88.80
76305;DHT22;65111;50.536;19.204;2023-06-14T01:18:29;11.30;88.70
76305;DHT22;65111;50.536;19.204;2023-06-14T01:20:55;11.30;88.60
76305;DHT22;65111;50.536;19.204;2023-06-14T01:23:22;11.30;88.60
76305;DHT22;65111;50.536;19.204;2023-06-14T01:25:50;11.40;88.60
76305;DHT22;65111;50.536;19.204;2023-06-14T01:28:20;11.50;88.60
76305;DHT22;65111;50.536;19.204;2023-06-14T01:30:50;11.40;88.70
76305;DHT22;65111;50.536;19.204;2023-06-14T01:33:21;11.40;88.70
76305;DHT22;65111;50.536;19.204;2023-06-14T01:35:49;11.40;88.60
76305;DHT22;65111;50.536;19.204;2023-06-14T01:38:17;11.50;88.50
76305;DHT22;65111;50.536;19.204;2023-06-14T01:40:45;11.50;88.50
76305;DHT22;65111;50.536;19.204;2023-06-14T01:43:13;11.50;88.50
76305;DHT22;65111;50.536;19.204;2023-06-14T01:45:45;11.50;88.70
76305;DHT22;65111;50.536;19.204;2023-06-14T01:48:12;11.60;88.70
76305;DHT22;65111;50.536;19.204;2023-06-14T01:50:38;11.60;88.60
76305;DHT22;65111;50.536;19.204;2023-06-14T01:53:07;11.70;88.50
76305;DHT22;65111;50.536;19.204;2023-06-14T01:55:34;11.70;88.60
76305;DHT22;65111;50.536;19.204;2023-06-14T01:58:03;11.80;88.40
76305;DHT22;65111;50.536;19.204;2023-06-14T02:00:30;11.90;88.40
76305;DHT22;65111;50.536;19.204;2023-06-14T02:02:56;11.80;88.40
76305;DHT22;65111;50.536;19.204;2023-06-14T02:05:22;11.80;88.50
76305;DHT22;65111;50.536;19.204;2023-06-14T02:07:48;11.90;88.50
76305;DHT22;65111;50.536;19.204;2023-06-14T02:10:14;12.00;88.40
76305;DHT22;65111;50.536;19.204;2023-06-14T02:12:41;12.10;88.30
76305;DHT22;65111;50.536;19.204;2023-06-14T02:15:07;12.10;88.30
76305;DHT22;65111;50.536;19.204;2023-06-14T02:17:34;12.10;88.40
76305;DHT22;65111;50.536;19.204;2023-06-14T02:20:00;12.20;88.40
76305;DHT22;65111;50.536;19.204;2023-06-14T02:22:26;12.20;88.40
76305;DHT22;65111;50.536;19.204;2023-06-14T02:24:52;12.30;88.30
76305;DHT22;65111;50.536;19.204;2023-06-14T02:27:18;12.40;88.40
76305;DHT22;65111;50.536;19.204;2023-06-14T02:29:44;12.40;88.30
76305;DHT22;65111;50.536;19.204;2023-06-14T02:32:10;12.40;88.20
76305;DHT22;65111;50.536;19.204;2023-06-14T02:34:36;12.40;88.30
76305;DHT22;65111;50.536;19.204;2023-06-14T02:37:02;12.40;88.20
76305;DHT22;65111;50.536;19.204;2023-06-14T02:39:29;12.40;88.20
76305;DHT22;65111;50.536;19.204;2023-06-14T02:41:55;12.50;88.20
76305;DHT22;65111;50.536;19.204;2023-06-14T02:44:25;12.50;88.10
76305;DHT22;65111;50.536;19.204;2023-06-14T02:46:55;12.60;88.30
76305;DHT22;65111;50.536;19.204;2023-06-14T02:49:22;12.50;88.40
76305;DHT22;65111;50.536;19.204;2023-06-14T02:51:48;12.60;88.20
76305;DHT22;65111;50.536;19.204;2023-06-14T02:54:14;12.70;87.80
76305;DHT22;65111;50.536;19.204;2023-06-14T02:56:40;12.70;87.70
76305;DHT22;65111;50.536;19.204;2023-06-14T02:59:07;12.70;87.70
76305;DHT22;65111;50.536;19.204;2023-06-14T03:01:35;12.80;87.60
76305;DHT22;65111;50.536;19.204;2023-06-14T03:04:01;12.80;87.80
76305;DHT22;65111;50.536;19.204;2023-06-14T03:06:31;12.80;87.60
76305;DHT22;65111;50.536;19.204;2023-06-14T03:08:57;12.90;87.80
76305;DHT22;65111;50.536;19.204;2023-06-14T03:11:26;12.80;87.80
76305;DHT22;65111;50.536;19.204;2023-06-14T03:13:53;12.90;87.90
76305;DHT22;65111;50.536;19.204;2023-06-14T03:16:19;13.00;87.80
76305;DHT22;65111;50.536;19.204;2023-06-14T03:18:53;13.00;87.90
76305;DHT22;65111;50.536;19.204;2023-06-14T03:21:19;13.10;87.80
76305;DHT22;65111;50.536;19.204;2023-06-14T03:23:48;13.10;87.90
76305;DHT22;65111;50.536;19.204;2023-06-14T03:26:15;13.10;87.90
76305;DHT22;65111;50.536;19.204;2023-06-14T03:28:44;13.10;87.80
76305;DHT22;65111;50.536;19.204;2023-06-14T03:31:15;13.10;87.80
76305;DHT22;65111;50.536;19.204;2023-06-14T03:33:42;13.20;87.80
76305;DHT22;65111;50.536;19.204;2023-06-14T03:36:08;13.20;87.80
76305;DHT22;65111;50.536;19.204;2023-06-14T03:38:34;13.20;87.80
76305;DHT22;65111;50.536;19.204;2023-06-14T03:41:01;13.20;87.80
76305;DHT22;65111;50.536;19.204;2023-06-14T03:43:27;13.30;87.80
76305;DHT22;65111;50.536;19.204;2023-06-14T03:45:53;13.20;87.90
76305;DHT22;65111;50.536;19.204;2023-06-14T03:48:19;13.20;87.90
76305;DHT22;65111;50.536;19.204;2023-06-14T03:50:45;13.20;87.90
76305;DHT22;65111;50.536;19.204;2023-06-14T03:53:11;13.20;87.90
76305;DHT22;65111;50.536;19.204;2023-06-14T03:55:37;13.30;88.00
76305;DHT22;65111;50.536;19.204;2023-06-14T03:58:04;13.40;88.00
76305;DHT22;65111;50.536;19.204;2023-06-14T04:00:30;13.40;87.90
76305;DHT22;65111;50.536;19.204;2023-06-14T04:02:57;13.50;87.90
76305;DHT22;65111;50.536;19.204;2023-06-14T04:05:24;13.40;87.80
76305;DHT22;65111;50.536;19.204;2023-06-14T04:07:52;13.40;87.90
76305;DHT22;65111;50.536;19.204;2023-06-14T04:10:21;13.50;87.90
76305;DHT22;65111;50.536;19.204;2023-06-14T04:12:47;13.40;88.10
76305;DHT22;65111;50.536;19.204;2023-06-14T04:15:13;13.50;88.20
76305;DHT22;65111;50.536;19.204;2023-06-14T04:17:39;13.60;88.10
76305;DHT22;65111;50.536;19.204;2023-06-14T04:20:06;13.60;88.00
76305;DHT22;65111;50.536;19.204;2023-06-14T04:22:35;13.60;88.10
76305;DHT22;65111;50.536;19.204;2023-06-14T04:25:02;13.50;88.30
76305;DHT22;65111;50.536;19.204;2023-06-14T04:27:29;13.60;88.20
76305;DHT22;65111;50.536;19.204;2023-06-14T04:29:57;13.50;88.40
76305;DHT22;65111;50.536;19.204;2023-06-14T04:32:24;13.40;88.60
76305;DHT22;65111;50.536;19.204;2023-06-14T04:34:55;13.50;88.60
76305;DHT22;65111;50.536;19.204;2023-06-14T04:37:23;13.50;88.60
76305;DHT22;65111;50.536;19.204;2023-06-14T04:39:49;13.40;88.60
76305;DHT22;65111;50.536;19.204;2023-06-14T04:42:16;13.40;88.80
76305;DHT22;65111;50.536;19.204;2023-06-14T04:44:42;13.30;88.90
76305;DHT22;65111;50.536;19.204;2023-06-14T04:47:12;13.30;88.90
76305;DHT22;65111;50.536;19.204;2023-06-14T04:49:38;13.30;89.00
76305;DHT22;65111;50.536;19.204;2023-06-14T04:52:06;13.30;89.00
76305;DHT22;65111;50.536;19.204;2023-06-14T04:54:33;13.30;89.10
76305;DHT22;65111;50.536;19.204;2023-06-14T04:56:59;13.20;89.20
76305;DHT22;65111;50.536;19.204;2023-06-14T04:59:25;13.30;89.10
76305;DHT22;65111;50.536;19.204;2023-06-14T05:01:52;13.30;89.10
76305;DHT22;65111;50.536;19.204;2023-06-14T05:04:19;13.30;89.00
76305;DHT22;65111;50.536;19.204;2023-06-14T05:06:45;13.30;88.90
76305;DHT22;65111;50.536;19.204;2023-06-14T05:09:14;13.40;89.10
76305;DHT22;65111;50.536;19.204;2023-06-14T05:11:41;13.40;89.00
76305;DHT22;65111;50.536;19.204;2023-06-14T05:14:11;13.40;88.90
76305;DHT22;65111;50.536;19.204;2023-06-14T05:16:37;13.40;88.90
76305;DHT22;65111;50.536;19.204;2023-06-14T05:19:04;13.40;88.90
76305;DHT22;65111;50.536;19.204;2023-06-14T05:21:31;13.40;88.70
76305;DHT22;65111;50.536;19.204;2023-06-14T05:23:59;13.30;88.90
76305;DHT22;65111;50.536;19.204;2023-06-14T05:26:26;13.40;88.80
76305;DHT22;65111;50.536;19.204;2023-06-14T05:28:56;13.30;88.90
76305;DHT22;65111;50.536;19.204;2023-06-14T05:31:25;13.40;88.80
76305;DHT22;65111;50.536;19.204;2023-06-14T05:33:52;13.30;89.00
76305;DHT22;65111;50.536;19.204;2023-06-14T05:36:19;13.30;89.10
76305;DHT22;65111;50.536;19.204;2023-06-14T05:38:46;13.30;89.20
76305;DHT22;65111;50.536;19.204;2023-06-14T05:41:12;13.30;89.10
76305;DHT22;65111;50.536;19.204;2023-06-14T05:43:39;13.30;89.00
76305;DHT22;65111;50.536;19.204;2023-06-14T05:46:05;13.20;89.00
76305;DHT22;65111;50.536;19.204;2023-06-14T05:48:31;13.30;89.20
76305;DHT22;65111;50.536;19.204;2023-06-14T05:50:57;13.20;89.30
76305;DHT22;65111;50.536;19.204;2023-06-14T05:53:23;13.30;89.30
76305;DHT22;65111;50.536;19.204;2023-06-14T05:55:50;13.30;89.50
76305;DHT22;65111;50.536;19.204;2023-06-14T05:58:19;13.30;89.30
76305;DHT22;65111;50.536;19.204;2023-06-14T06:00:45;13.40;89.30
76305;DHT22;65111;50.536;19.204;2023-06-14T06:03:12;13.40;89.20
76305;DHT22;65111;50.536;19.204;2023-06-14T06:05:39;13.40;88.90
76305;DHT22;65111;50.536;19.204;2023-06-14T06:08:05;13.50;89.20
76305;DHT22;65111;50.536;19.204;2023-06-14T06:10:31;13.50;89.00
76305;DHT22;65111;50.536;19.204;2023-06-14T06:12:57;13.50;88.90
76305;DHT22;65111;50.536;19.204;2023-06-14T06:15:23;13.60;88.90
76305;DHT22;65111;50.536;19.204;2023-06-14T06:17:50;13.60;89.00
76305;DHT22;65111;50.536;19.204;2023-06-14T06:20:16;13.80;88.80
76305;DHT22;65111;50.536;19.204;2023-06-14T06:22:43;13.80;88.50
76305;DHT22;65111;50.536;19.204;2023-06-14T06:25:09;13.70;88.50
76305;DHT22;65111;50.536;19.204;2023-06-14T06:27:35;13.70;88.60
76305;DHT22;65111;50.536;19.204;2023-06-14T06:30:06;13.80;88.70
76305;DHT22;65111;50.536;19.204;2023-06-14T06:32:32;13.90;88.60
76305;DHT22;65111;50.536;19.204;2023-06-14T06:34:58;14.00;88.50
76305;DHT22;65111;50.536;19.204;2023-06-14T06:37:25;14.10;88.60
76305;DHT22;65111;50.536;19.204;2023-06-14T06:39:51;14.10;88.40
76305;DHT22;65111;50.536;19.204;2023-06-14T06:42:17;14.10;87.90
76305;DHT22;65111;50.536;19.204;2023-06-14T06:44:43;14.00;87.80
76305;DHT22;65111;50.536;19.204;2023-06-14T06:47:09;14.00;87.70
76305;DHT22;65111;50.536;19.204;2023-06-14T06:49:37;14.00;87.90
76305;DHT22;65111;50.536;19.204;2023-06-14T06:52:06;14.00;87.80
76305;DHT22;65111;50.536;19.204;2023-06-14T06:54:33;14.00;88.30
76305;DHT22;65111;50.536;19.204;2023-06-14T06:56:59;14.00;88.40
76305;DHT22;65111;50.536;19.204;2023-06-14T06:59:27;14.10;88.00
76305;DHT22;65111;50.536;19.204;2023-06-14T07:01:53;14.10;88.00
76305;DHT22;65111;50.536;19.204;2023-06-14T07:04:19;14.10;88.00
76305;DHT22;65111;50.536;19.204;2023-06-14T07:06:46;14.20;88.00
76305;DHT22;65111;50.536;19.204;2023-06-14T07:09:13;14.20;88.30
76305;DHT22;65111;50.536;19.204;2023-06-14T07:11:40;14.40;88.20
76305;DHT22;65111;50.536;19.204;2023-06-14T07:14:07;14.50;88.10
76305;DHT22;65111;50.536;19.204;2023-06-14T07:16:33;14.60;87.70
76305;DHT22;65111;50.536;19.204;2023-06-14T07:18:59;14.70;87.60
76305;DHT22;65111;50.536;19.204;2023-06-14T07:21:26;14.90;87.50
76305;DHT22;65111;50.536;19.204;2023-06-14T07:23:53;15.00;87.50
76305;DHT22;65111;50.536;19.204;2023-06-14T07:26:20;15.30;87.30
76305;DHT22;65111;50.536;19.204;2023-06-14T07:28:47;15.70;86.90
76305;DHT22;65111;50.536;19.204;2023-06-14T07:31:17;16.10;86.80
76305;DHT22;65111;50.536;19.204;2023-06-14T07:33:45;16.60;85.80
76305;DHT22;65111;50.536;19.204;2023-06-14T07:36:11;17.00;85.60
76305;DHT22;65111;50.536;19.204;2023-06-14T07:38:37;17.10;82.60
76305;DHT22;65111;50.536;19.204;2023-06-14T07:41:03;17.00;81.70
76305;DHT22;65111;50.536;19.204;2023-06-14T07:43:29;16.80;82.20
76305;DHT22;65111;50.536;19.204;2023-06-14T07:45:55;16.60;81.80
76305;DHT22;65111;50.536;19.204;2023-06-14T07:48:22;16.60;82.30
76305;DHT22;65111;50.536;19.204;2023-06-14T07:50:48;16.50;82.30
76305;DHT22;65111;50.536;19.204;2023-06-14T07:53:14;16.30;81.90
76305;DHT22;65111;50.536;19.204;2023-06-14T07:55:40;16.00;82.30
76305;DHT22;65111;50.536;19.204;2023-06-14T07:58:09;15.90;82.60
76305;DHT22;65111;50.536;19.204;2023-06-14T08:00:36;15.80;82.80
76305;DHT22;65111;50.536;19.204;2023-06-14T08:03:02;15.60;83.00
76305;DHT22;65111;50.536;19.204;2023-06-14T08:05:28;15.40;83.20
76305;DHT22;65111;50.536;19.204;2023-06-14T08:07:54;15.50;83.50
76305;DHT22;65111;50.536;19.204;2023-06-14T08:10:22;15.40;84.20
76305;DHT22;65111;50.536;19.204;2023-06-14T08:12:48;15.50;84.40
76305;DHT22;65111;50.536;19.204;2023-06-14T08:15:16;15.60;84.20
76305;DHT22;65111;50.536;19.204;2023-06-14T08:17:43;15.60;83.60
76305;DHT22;65111;50.536;19.204;2023-06-14T08:20:10;15.60;83.90
76305;DHT22;65111;50.536;19.204;2023-06-14T08:22:36;15.50;83.90
76305;DHT22;65111;50.536;19.204;2023-06-14T08:25:03;15.40;84.50
76305;DHT22;65111;50.536;19.204;2023-06-14T08:27:30;15.40;84.00
76305;DHT22;65111;50.536;19.204;2023-06-14T08:29:56;15.30;84.70
76305;DHT22;65111;50.536;19.204;2023-06-14T08:32:22;15.30;84.80
76305;DHT22;65111;50.536;19.204;2023-06-14T08:34:48;15.40;84.90
76305;DHT22;65111;50.536;19.204;2023-06-14T08:37:14;15.40;84.50
76305;DHT22;65111;50.536;19.204;2023-06-14T08:39:40;15.50;84.40
76305;DHT22;65111;50.536;19.204;2023-06-14T08:42:07;15.60;84.20
76305;DHT22;65111;50.536;19.204;2023-06-14T08:44:36;15.60;84.30
76305;DHT22;65111;50.536;19.204;2023-06-14T08:47:03;15.80;84.60
76305;DHT22;65111;50.536;19.204;2023-06-14T08:49:31;16.20;84.40
76305;DHT22;65111;50.536;19.204;2023-06-14T08:51:58;16.50;83.70
76305;DHT22;65111;50.536;19.204;2023-06-14T08:54:28;16.50;82.70
76305;DHT22;65111;50.536;19.204;2023-06-14T08:57:00;16.50;82.70
76305;DHT22;65111;50.536;19.204;2023-06-14T08:59:26;16.50;82.40
76305;DHT22;65111;50.536;19.204;2023-06-14T09:01:53;16.40;82.00
76305;DHT22;65111;50.536;19.204;2023-06-14T09:04:21;16.20;82.10
76305;DHT22;65111;50.536;19.204;2023-06-14T09:06:55;16.10;82.60
76305;DHT22;65111;50.536;19.204;2023-06-14T09:09:22;15.90;82.30
76305;DHT22;65111;50.536;19.204;2023-06-14T09:11:50;15.80;83.20
76305;DHT22;65111;50.536;19.204;2023-06-14T09:14:21;15.70;83.40
76305;DHT22;65111;50.536;19.204;2023-06-14T09:16:47;15.60;83.90
76305;DHT22;65111;50.536;19.204;2023-06-14T09:19:23;15.50;84.20
76305;DHT22;65111;50.536;19.204;2023-06-14T09:21:50;15.40;84.60
76305;DHT22;65111;50.536;19.204;2023-06-14T09:24:19;15.20;84.80
76305;DHT22;65111;50.536;19.204;2023-06-14T09:26:48;15.10;85.30
76305;DHT22;65111;50.536;19.204;2023-06-14T09:29:16;15.00;85.80
76305;DHT22;65111;50.536;19.204;2023-06-14T09:31:45;14.70;86.10
76305;DHT22;65111;50.536;19.204;2023-06-14T09:34:11;14.80;86.20
76305;DHT22;65111;50.536;19.204;2023-06-14T09:36:39;14.60;86.70
76305;DHT22;65111;50.536;19.204;2023-06-14T09:39:05;14.60;87.20
76305;DHT22;65111;50.536;19.204;2023-06-14T09:41:37;14.50;87.70
76305;DHT22;65111;50.536;19.204;2023-06-14T09:44:05;14.60;87.70
76305;DHT22;65111;50.536;19.204;2023-06-14T09:46:32;14.70;87.80
76305;DHT22;65111;50.536;19.204;2023-06-14T09:48:59;14.60;87.40
76305;DHT22;65111;50.536;19.204;2023-06-14T09:51:26;14.70;87.50
76305;DHT22;65111;50.536;19.204;2023-06-14T09:53:58;14.70;87.20
76305;DHT22;65111;50.536;19.204;2023-06-14T09:56:51;14.70;87.40
76305;DHT22;65111;50.536;19.204;2023-06-14T09:59:22;14.80;87.40
76305;DHT22;65111;50.536;19.204;2023-06-14T10:01:57;14.80;87.30
76305;DHT22;65111;50.536;19.204;2023-06-14T10:04:25;14.80;87.30
76305;DHT22;65111;50.536;19.204;2023-06-14T10:06:54;14.80;87.40
76305;DHT22;65111;50.536;19.204;2023-06-14T10:09:21;14.90;87.70
76305;DHT22;65111;50.536;19.204;2023-06-14T10:11:48;14.90;87.50
76305;DHT22;65111;50.536;19.204;2023-06-14T10:14:14;14.80;87.40
76305;DHT22;65111;50.536;19.204;2023-06-14T10:19:54;14.80;87.50
76305;DHT22;65111;50.536;19.204;2023-06-14T10:22:30;14.80;87.70
76305;DHT22;65111;50.536;19.204;2023-06-14T10:24:57;14.90;87.90
76305;DHT22;65111;50.536;19.204;2023-06-14T10:27:24;14.80;87.80
76305;DHT22;65111;50.536;19.204;2023-06-14T10:32:20;15.10;88.00
76305;DHT22;65111;50.536;19.204;2023-06-14T10:34:57;15.20;88.00
76305;DHT22;65111;50.536;19.204;2023-06-14T10:37:23;15.30;88.00
76305;DHT22;65111;50.536;19.204;2023-06-14T10:39:52;15.50;87.30
76305;DHT22;65111;50.536;19.204;2023-06-14T10:42:21;15.70;86.00
76305;DHT22;65111;50.536;19.204;2023-06-14T10:44:55;15.70;86.00
76305;DHT22;65111;50.536;19.204;2023-06-14T10:47:32;15.80;85.50
76305;DHT22;65111;50.536;19.204;2023-06-14T10:52:38;15.90;85.20
76305;DHT22;65111;50.536;19.204;2023-06-14T10:55:15;16.10;85.40
76305;DHT22;65111;50.536;19.204;2023-06-14T11:00:10;16.30;83.90
76305;DHT22;65111;50.536;19.204;2023-06-14T11:05:30;16.00;83.90
76305;DHT22;65111;50.536;19.204;2023-06-14T11:11:13;16.30;83.70
76305;DHT22;65111;50.536;19.204;2023-06-14T11:13:42;16.30;83.70
76305;DHT22;65111;50.536;19.204;2023-06-14T11:16:13;16.10;83.20
76305;DHT22;65111;50.536;19.204;2023-06-14T11:18:41;16.10;83.50
76305;DHT22;65111;50.536;19.204;2023-06-14T11:21:07;16.10;84.00
76305;DHT22;65111;50.536;19.204;2023-06-14T11:23:35;16.10;83.90
76305;DHT22;65111;50.536;19.204;2023-06-14T11:26:01;16.20;83.80
76305;DHT22;65111;50.536;19.204;2023-06-14T11:28:38;16.30;84.10
76305;DHT22;65111;50.536;19.204;2023-06-14T11:31:04;16.40;83.90
76305;DHT22;65111;50.536;19.204;2023-06-14T11:33:31;16.40;83.20
76305;DHT22;65111;50.536;19.204;2023-06-14T11:35:57;16.40;83.80
76305;DHT22;65111;50.536;19.204;2023-06-14T11:38:25;16.40;84.20
76305;DHT22;65111;50.536;19.204;2023-06-14T11:40:51;16.50;83.40
76305;DHT22;65111;50.536;19.204;2023-06-14T11:43:17;16.50;82.80
76305;DHT22;65111;50.536;19.204;2023-06-14T11:45:48;16.30;82.60
76305;DHT22;65111;50.536;19.204;2023-06-14T11:48:15;16.00;83.10
76305;DHT22;65111;50.536;19.204;2023-06-14T11:50:41;15.90;83.40
76305;DHT22;65111;50.536;19.204;2023-06-14T11:53:06;15.80;83.90
76305;DHT22;65111;50.536;19.204;2023-06-14T11:55:37;15.90;84.30
76305;DHT22;65111;50.536;19.204;2023-06-14T11:58:03;15.80;84.50
76305;DHT22;65111;50.536;19.204;2023-06-14T12:00:30;15.90;84.60
76305;DHT22;65111;50.536;19.204;2023-06-14T12:02:57;15.90;84.70
76305;DHT22;65111;50.536;19.204;2023-06-14T12:05:25;15.90;85.00
76305;DHT22;65111;50.536;19.204;2023-06-14T12:08:02;16.10;84.80
76305;DHT22;65111;50.536;19.204;2023-06-14T12:10:29;16.30;84.30
76305;DHT22;65111;50.536;19.204;2023-06-14T12:12:59;16.30;83.80
76305;DHT22;65111;50.536;19.204;2023-06-14T12:15:28;16.40;83.70
76305;DHT22;65111;50.536;19.204;2023-06-14T12:17:55;16.50;83.90
76305;DHT22;65111;50.536;19.204;2023-06-14T12:20:21;16.70;83.90
76305;DHT22;65111;50.536;19.204;2023-06-14T12:22:52;16.80;83.90
76305;DHT22;65111;50.536;19.204;2023-06-14T12:25:37;17.10;83.70
76305;DHT22;65111;50.536;19.204;2023-06-14T12:28:07;17.50;83.50
76305;DHT22;65111;50.536;19.204;2023-06-14T12:30:35;17.70;82.10
76305;DHT22;65111;50.536;19.204;2023-06-14T12:33:02;17.80;81.50
76305;DHT22;65111;50.536;19.204;2023-06-14T12:35:28;17.80;80.80
76305;DHT22;65111;50.536;19.204;2023-06-14T12:37:54;17.90;81.80
76305;DHT22;65111;50.536;19.204;2023-06-14T12:40:20;18.20;81.10
76305;DHT22;65111;50.536;19.204;2023-06-14T12:42:46;18.40;81.40
76305;DHT22;65111;50.536;19.204;2023-06-14T12:45:16;18.70;81.20
76305;DHT22;65111;50.536;19.204;2023-06-14T12:47:42;18.90;80.60
76305;DHT22;65111;50.536;19.204;2023-06-14T12:50:08;19.20;80.60
76305;DHT22;65111;50.536;19.204;2023-06-14T12:52:34;19.50;80.90
76305;DHT22;65111;50.536;19.204;2023-06-14T12:55:06;20.00;80.40
76305;DHT22;65111;50.536;19.204;2023-06-14T12:57:32;20.30;79.40
76305;DHT22;65111;50.536;19.204;2023-06-14T13:00:01;20.70;79.60
76305;DHT22;65111;50.536;19.204;2023-06-14T13:02:26;21.00;76.50
76305;DHT22;65111;50.536;19.204;2023-06-14T13:04:53;21.20;77.70
76305;DHT22;65111;50.536;19.204;2023-06-14T13:07:19;21.60;76.50
76305;DHT22;65111;50.536;19.204;2023-06-14T13:09:44;21.70;75.60
76305;DHT22;65111;50.536;19.204;2023-06-14T13:12:11;21.80;75.00
76305;DHT22;65111;50.536;19.204;2023-06-14T13:14:39;21.80;75.00
76305;DHT22;65111;50.536;19.204;2023-06-14T13:17:08;21.90;74.60
76305;DHT22;65111;50.536;19.204;2023-06-14T13:19:35;21.90;74.80
76305;DHT22;65111;50.536;19.204;2023-06-14T13:22:01;22.00;74.90
76305;DHT22;65111;50.536;19.204;2023-06-14T13:24:27;22.10;74.10
76305;DHT22;65111;50.536;19.204;2023-06-14T13:26:56;22.00;74.10
76305;DHT22;65111;50.536;19.204;2023-06-14T13:29:23;22.10;73.80
76305;DHT22;65111;50.536;19.204;2023-06-14T13:31:50;22.20;73.50
76305;DHT22;65111;50.536;19.204;2023-06-14T13:34:16;22.10;72.90
76305;DHT22;65111;50.536;19.204;2023-06-14T13:36:42;22.00;72.60
76305;DHT22;65111;50.536;19.204;2023-06-14T13:39:08;21.80;69.70
76305;DHT22;65111;50.536;19.204;2023-06-14T13:41:34;21.40;69.60
76305;DHT22;65111;50.536;19.204;2023-06-14T13:44:01;20.90;69.30
76305;DHT22;65111;50.536;19.204;2023-06-14T13:46:30;20.40;69.80
76305;DHT22;65111;50.536;19.204;2023-06-14T13:48:56;20.10;70.70
76305;DHT22;65111;50.536;19.204;2023-06-14T13:51:23;19.80;71.60
76305;DHT22;65111;50.536;19.204;2023-06-14T13:53:49;19.60;70.80
76305;DHT22;65111;50.536;19.204;2023-06-14T13:56:17;19.40;70.10
76305;DHT22;65111;50.536;19.204;2023-06-14T13:58:43;19.10;71.20
76305;DHT22;65111;50.536;19.204;2023-06-14T14:01:09;18.70;72.10
76305;DHT22;65111;50.536;19.204;2023-06-14T14:03:35;18.60;73.10
76305;DHT22;65111;50.536;19.204;2023-06-14T14:06:02;18.50;73.60
76305;DHT22;65111;50.536;19.204;2023-06-14T14:08:28;18.40;74.10
76305;DHT22;65111;50.536;19.204;2023-06-14T14:10:54;18.30;74.40
76305;DHT22;65111;50.536;19.204;2023-06-14T14:13:22;18.00;75.60
76305;DHT22;65111;50.536;19.204;2023-06-14T14:15:48;17.80;76.20
76305;DHT22;65111;50.536;19.204;2023-06-14T14:18:18;17.50;77.10
76305;DHT22;65111;50.536;19.204;2023-06-14T14:20:47;17.30;77.70
76305;DHT22;65111;50.536;19.204;2023-06-14T14:23:13;17.20;78.20
76305;DHT22;65111;50.536;19.204;2023-06-14T14:25:39;17.10;78.40
76305;DHT22;65111;50.536;19.204;2023-06-14T14:28:05;17.10;78.30
76305;DHT22;65111;50.536;19.204;2023-06-14T14:30:31;17.00;78.40
76305;DHT22;65111;50.536;19.204;2023-06-14T14:32:57;17.00;78.30
76305;DHT22;65111;50.536;19.204;2023-06-14T14:35:22;17.00;78.40
76305;DHT22;65111;50.536;19.204;2023-06-14T14:37:50;17.00;78.40
76305;DHT22;65111;50.536;19.204;2023-06-14T14:40:16;17.00;78.30
76305;DHT22;65111;50.536;19.204;2023-06-14T14:42:42;16.90;78.50
76305;DHT22;65111;50.536;19.204;2023-06-14T14:45:08;17.00;78.40
76305;DHT22;65111;50.536;19.204;2023-06-14T14:47:34;17.10;78.40
76305;DHT22;65111;50.536;19.204;2023-06-14T14:50:00;17.10;78.60
76305;DHT22;65111;50.536;19.204;2023-06-14T14:52:26;17.10;78.60
76305;DHT22;65111;50.536;19.204;2023-06-14T14:54:52;17.20;78.80
76305;DHT22;65111;50.536;19.204;2023-06-14T14:57:19;17.10;78.80
76305;DHT22;65111;50.536;19.204;2023-06-14T14:59:45;17.10;79.10
76305;DHT22;65111;50.536;19.204;2023-06-14T15:02:11;17.20;79.20
76305;DHT22;65111;50.536;19.204;2023-06-14T15:04:37;17.20;79.40
76305;DHT22;65111;50.536;19.204;2023-06-14T15:07:03;17.40;79.40
76305;DHT22;65111;50.536;19.204;2023-06-14T15:09:29;17.40;79.30
76305;DHT22;65111;50.536;19.204;2023-06-14T15:11:55;17.60;79.50
76305;DHT22;65111;50.536;19.204;2023-06-14T15:14:21;17.60;79.50
76305;DHT22;65111;50.536;19.204;2023-06-14T15:16:47;17.70;78.20
76305;DHT22;65111;50.536;19.204;2023-06-14T15:19:13;17.50;78.00
76305;DHT22;65111;50.536;19.204;2023-06-14T15:21:39;17.50;78.30
76305;DHT22;65111;50.536;19.204;2023-06-14T15:24:05;17.40;78.60
76305;DHT22;65111;50.536;19.204;2023-06-14T15:26:31;17.30;78.80
76305;DHT22;65111;50.536;19.204;2023-06-14T15:28:57;17.20;78.80
76305;DHT22;65111;50.536;19.204;2023-06-14T15:31:23;17.20;79.10
76305;DHT22;65111;50.536;19.204;2023-06-14T15:33:52;17.20;79.40
76305;DHT22;65111;50.536;19.204;2023-06-14T15:36:18;17.20;79.30